Sea Dolphin C — V7XL9 — position and weather

sailwx.info

Track history (hours):
 
Tides and Currents Weather Stations Pressure Air Temp Water Temp Dewpoint Dewpoint Depression Visibility Wind Speed Wind Dir Waves Ship Positions

Sea Dolphin C

Last reported at 2016-May-03 11:11 UTC. Time now 2016-May-06 16:45 UTC.
Position N 35°58' W 005°35'.

Length 181 m; draft 9.9 m.

Type: Cargo ship. MMSI: 538004513.

Date/timePositionNaut miles runAvg speedWind from/ knotsBaromVisibWave heightAir tempDewpointWater temp
2016-May-03 11:11N 35°58' W 005°35'711.8
2016-May-03 10:33N 35°60' W 005°26'1110.9
2016-May-03 09:33N 36°02' W 005°13'  
2016-Apr-30 16:09N 37°34' E 010°42'1012.9
2016-Apr-30 15:25N 37°32' E 010°54'8512.3
2016-Apr-30 08:31N 37°01' E 012°34'1212.1
2016-Apr-30 07:30N 36°59' E 012°49'1412.0
2016-Apr-30 06:21N 36°56' E 013°06'1212.0
2016-Apr-30 05:23N 36°53' E 013°20'1012.4
2016-Apr-30 04:34N 36°51' E 013°33'1212.3
2016-Apr-30 03:33N 36°49' E 013°48'1212.3
2016-Apr-30 02:33N 36°46' E 014°03'1212.0
2016-Apr-30 01:33N 36°43' E 014°17'1211.9
2016-Apr-30 00:33N 36°40' E 014°32'1211.9
2016-Apr-29 23:33N 36°38' E 014°46'1212.5
2016-Apr-29 22:33N 36°35' E 015°01'1211.9
2016-Apr-29 21:32N 36°35' E 015°17'38212.1
2016-Apr-28 14:04N 36°25' E 023°12'612.5
2016-Apr-28 13:33N 36°30' E 023°18'1812.2
2016-Apr-28 12:04N 36°45' E 023°29'611.8
2016-Apr-28 11:31N 36°51' E 023°33'1212.2
2016-Apr-28 10:33N 37°01' E 023°41'1212.2
2016-Apr-28 09:33N 37°11' E 023°49'1312.4
2016-Apr-28 08:31N 37°22' E 023°57'2612.5
2016-Apr-28 06:28N 37°44' E 024°15'1112.6
2016-Apr-28 05:33N 37°50' E 024°27'2512.3
2016-Apr-28 03:33N 38°11' E 024°44'1712.4
2016-Apr-28 02:09N 38°27' E 024°54'10412.0
2016-Apr-27 17:26N 39°60' E 025°55'13711.4
2016-Apr-27 05:28N 40°48' E 028°42'1111.9
2016-Apr-27 04:33N 40°56' E 028°53'3 0.5
2016-Apr-26 22:15N 40°58' E 028°56'32611.4
2016-Apr-25 17:30N 46°12' E 030°58'1010.7
2016-Apr-25 16:33N 46°22' E 030°55'1111.1
2016-Apr-25 15:33N 46°33' E 030°58'1110.5
2016-Apr-25 14:29N 46°35' E 031°14'19 9.1
2016-Apr-25 12:27N 46°36' E 031°41'7 8.4
2016-Apr-25 11:33N 46°37' E 031°52'8 7.6
2016-Apr-25 10:33N 46°44' E 031°55'7 7.2
2016-Apr-25 09:33N 46°51' E 031°57'6 5.9
2016-Apr-25 08:33N 46°57' E 032°01'0 0.3
2016-Apr-25 07:31N 46°56' E 032°01'0 0.0
2016-Apr-25 06:31N 46°56' E 032°01'0 0.0
2016-Apr-25 05:31N 46°56' E 032°01'0 0.0
2016-Apr-25 04:31N 46°56' E 032°01'0 0.0
2016-Apr-25 03:31N 46°56' E 032°01'0 0.0
2016-Apr-25 02:31N 46°56' E 032°01'0 0.0
2016-Apr-25 01:31N 46°56' E 032°01'0 0.0
2016-Apr-25 00:31N 46°56' E 032°01'0 0.0
2016-Apr-24 23:31N 46°56' E 032°01'0 0.0
2016-Apr-24 22:31N 46°56' E 032°01'0 0.0
2016-Apr-24 21:31N 46°56' E 032°01'0 0.0
2016-Apr-24 20:31N 46°56' E 032°01'0 0.0
2016-Apr-24 19:31N 46°56' E 032°01'0 0.0
2016-Apr-24 18:31N 46°56' E 032°01'0 0.0
2016-Apr-24 17:31N 46°56' E 032°01'0 0.0
2016-Apr-24 16:31N 46°56' E 032°01'0 0.0
2016-Apr-24 15:31N 46°56' E 032°01'0 0.1
2016-Apr-24 14:31N 46°56' E 032°01'0 0.0
2016-Apr-24 13:31N 46°56' E 032°01'0 0.0
2016-Apr-24 12:31N 46°56' E 032°01'0 0.0
2016-Apr-24 11:31N 46°56' E 032°01'0 0.0
2016-Apr-24 10:31N 46°56' E 032°01'0 0.0
2016-Apr-24 09:31N 46°56' E 032°01'0 0.0
2016-Apr-24 08:31N 46°56' E 032°01'0 0.0
2016-Apr-24 07:31N 46°56' E 032°01'0 0.0
2016-Apr-24 06:31N 46°56' E 032°01'0 0.0
2016-Apr-24 05:31N 46°56' E 032°01'0 0.0
2016-Apr-24 04:31N 46°56' E 032°01'0 0.0
2016-Apr-24 03:31N 46°56' E 032°01'0 0.0
2016-Apr-24 02:31N 46°56' E 032°01'0 0.0
2016-Apr-24 01:31N 46°56' E 032°01'0 0.0
2016-Apr-24 00:31N 46°56' E 032°01'0 0.0
2016-Apr-23 23:31N 46°56' E 032°01'0 0.0
2016-Apr-23 22:31N 46°56' E 032°01'0 0.0
2016-Apr-23 21:31N 46°56' E 032°01'0 0.0
2016-Apr-23 20:31N 46°56' E 032°01'0 0.0
2016-Apr-23 19:31N 46°56' E 032°01'0 0.0
2016-Apr-23 18:31N 46°56' E 032°01'0 0.0
2016-Apr-23 17:31N 46°56' E 032°01'0 0.0
2016-Apr-23 16:31N 46°56' E 032°01'0 0.0
2016-Apr-23 15:31N 46°56' E 032°01'0 0.1
2016-Apr-23 14:31N 46°56' E 032°01'0 0.0
2016-Apr-23 13:33N 46°56' E 032°01'0 0.0
2016-Apr-23 12:33N 46°56' E 032°01'0 0.0
2016-Apr-23 11:33N 46°56' E 032°01'  
Track history (hours):
 
Tides and Currents Weather Stations Pressure Air Temp Water Temp Dewpoint Dewpoint Depression Visibility Wind Speed Wind Dir Waves Ship Positions

Sea Dolphin C

Last reported at 2016-May-03 11:11 UTC. Time now 2016-May-06 16:45 UTC.
Position N 35°58' W 005°35'.

Length 181 m; draft 9.9 m.

Type: Cargo ship. MMSI: 538004513.

Date/timePositionNaut miles runAvg speedWind from/ knotsBaromVisibWave heightAir tempDewpointWater temp
2016-May-03 11:11N 35°58' W 005°35'711.8
2016-May-03 10:33N 35°60' W 005°26'1110.9
2016-May-03 09:33N 36°02' W 005°13'  
2016-Apr-30 16:09N 37°34' E 010°42'1012.9
2016-Apr-30 15:25N 37°32' E 010°54'8512.3
2016-Apr-30 08:31N 37°01' E 012°34'1212.1
2016-Apr-30 07:30N 36°59' E 012°49'1412.0
2016-Apr-30 06:21N 36°56' E 013°06'1212.0
2016-Apr-30 05:23N 36°53' E 013°20'1012.4
2016-Apr-30 04:34N 36°51' E 013°33'1212.3
2016-Apr-30 03:33N 36°49' E 013°48'1212.3
2016-Apr-30 02:33N 36°46' E 014°03'1212.0
2016-Apr-30 01:33N 36°43' E 014°17'1211.9
2016-Apr-30 00:33N 36°40' E 014°32'1211.9
2016-Apr-29 23:33N 36°38' E 014°46'1212.5
2016-Apr-29 22:33N 36°35' E 015°01'1211.9
2016-Apr-29 21:32N 36°35' E 015°17'38212.1
2016-Apr-28 14:04N 36°25' E 023°12'612.5
2016-Apr-28 13:33N 36°30' E 023°18'1812.2
2016-Apr-28 12:04N 36°45' E 023°29'611.8
2016-Apr-28 11:31N 36°51' E 023°33'1212.2
2016-Apr-28 10:33N 37°01' E 023°41'1212.2
2016-Apr-28 09:33N 37°11' E 023°49'1312.4
2016-Apr-28 08:31N 37°22' E 023°57'2612.5
2016-Apr-28 06:28N 37°44' E 024°15'1112.6
2016-Apr-28 05:33N 37°50' E 024°27'2512.3
2016-Apr-28 03:33N 38°11' E 024°44'1712.4
2016-Apr-28 02:09N 38°27' E 024°54'10412.0
2016-Apr-27 17:26N 39°60' E 025°55'13711.4
2016-Apr-27 05:28N 40°48' E 028°42'1111.9
2016-Apr-27 04:33N 40°56' E 028°53'3 0.5
2016-Apr-26 22:15N 40°58' E 028°56'32611.4
2016-Apr-25 17:30N 46°12' E 030°58'1010.7
2016-Apr-25 16:33N 46°22' E 030°55'1111.1
2016-Apr-25 15:33N 46°33' E 030°58'1110.5
2016-Apr-25 14:29N 46°35' E 031°14'19 9.1
2016-Apr-25 12:27N 46°36' E 031°41'7 8.4
2016-Apr-25 11:33N 46°37' E 031°52'8 7.6
2016-Apr-25 10:33N 46°44' E 031°55'7 7.2
2016-Apr-25 09:33N 46°51' E 031°57'6 5.9
2016-Apr-25 08:33N 46°57' E 032°01'0 0.3
2016-Apr-25 07:31N 46°56' E 032°01'0 0.0
2016-Apr-25 06:31N 46°56' E 032°01'0 0.0
2016-Apr-25 05:31N 46°56' E 032°01'0 0.0
2016-Apr-25 04:31N 46°56' E 032°01'0 0.0
2016-Apr-25 03:31N 46°56' E 032°01'0 0.0
2016-Apr-25 02:31N 46°56' E 032°01'0 0.0
2016-Apr-25 01:31N 46°56' E 032°01'0 0.0
2016-Apr-25 00:31N 46°56' E 032°01'0 0.0
2016-Apr-24 23:31N 46°56' E 032°01'0 0.0
2016-Apr-24 22:31N 46°56' E 032°01'0 0.0
2016-Apr-24 21:31N 46°56' E 032°01'0 0.0
2016-Apr-24 20:31N 46°56' E 032°01'0 0.0
2016-Apr-24 19:31N 46°56' E 032°01'0 0.0
2016-Apr-24 18:31N 46°56' E 032°01'0 0.0
2016-Apr-24 17:31N 46°56' E 032°01'0 0.0
2016-Apr-24 16:31N 46°56' E 032°01'0 0.0
2016-Apr-24 15:31N 46°56' E 032°01'0 0.1
2016-Apr-24 14:31N 46°56' E 032°01'0 0.0
2016-Apr-24 13:31N 46°56' E 032°01'0 0.0
2016-Apr-24 12:31N 46°56' E 032°01'0 0.0
2016-Apr-24 11:31N 46°56' E 032°01'0 0.0
2016-Apr-24 10:31N 46°56' E 032°01'0 0.0
2016-Apr-24 09:31N 46°56' E 032°01'0 0.0
2016-Apr-24 08:31N 46°56' E 032°01'0 0.0
2016-Apr-24 07:31N 46°56' E 032°01'0 0.0
2016-Apr-24 06:31N 46°56' E 032°01'0 0.0
2016-Apr-24 05:31N 46°56' E 032°01'0 0.0
2016-Apr-24 04:31N 46°56' E 032°01'0 0.0
2016-Apr-24 03:31N 46°56' E 032°01'0 0.0
2016-Apr-24 02:31N 46°56' E 032°01'0 0.0
2016-Apr-24 01:31N 46°56' E 032°01'0 0.0
2016-Apr-24 00:31N 46°56' E 032°01'0 0.0
2016-Apr-23 23:31N 46°56' E 032°01'0 0.0
2016-Apr-23 22:31N 46°56' E 032°01'0 0.0
2016-Apr-23 21:31N 46°56' E 032°01'0 0.0
2016-Apr-23 20:31N 46°56' E 032°01'0 0.0
2016-Apr-23 19:31N 46°56' E 032°01'0 0.0
2016-Apr-23 18:31N 46°56' E 032°01'0 0.0
2016-Apr-23 17:31N 46°56' E 032°01'0 0.0
2016-Apr-23 16:31N 46°56' E 032°01'0 0.0
2016-Apr-23 15:31N 46°56' E 032°01'0 0.1
2016-Apr-23 14:31N 46°56' E 032°01'0 0.0
2016-Apr-23 13:33N 46°56' E 032°01'0 0.0
2016-Apr-23 12:33N 46°56' E 032°01'0 0.0
2016-Apr-23 11:33N 46°56' E 032°01'  

Dump ship's entire track history